Time;durP1;ratioP1;P1;durP2;ratioP2;P2;SDS_P1;SDS_P2;PMS_P1;PMS_P2;Temp;Humidity;BMP_temperature;BMP_pressure;BME280_temperature;BME280_humidity;BME280_pressure;Samples;Min_cycle;Max_cycle;Signal;HPM_P1;HPM_P2
2021/12/26 00:01:49;;;;;;;;;29.00;18.00;;;;;10.07;83.61;100062.31;5036031;28;45440;-52
2021/12/26 00:04:16;;;;;;;;;30.75;25.75;;;;;10.08;83.28;100053.34;5036156;28;45193;-53
2021/12/26 00:06:42;;;;;;;;;34.75;30.25;;;;;10.09;83.69;100057.66;5036330;28;45416;-52
2021/12/26 00:09:08;;;;;;;;;45.75;27.75;;;;;10.11;83.63;100057.47;5035974;28;46173;-49
2021/12/26 00:11:33;;;;;;;;;43.75;29.75;;;;;10.10;83.70;100061.13;5035831;28;45238;-53
2021/12/26 00:13:59;;;;;;;;;38.75;36.00;;;;;10.12;83.74;100056.50;5036254;28;45499;-53
2021/12/26 00:16:24;;;;;;;;;51.00;33.25;;;;;10.02;83.87;100040.69;5036386;28;45283;-53
2021/12/26 00:18:50;;;;;;;;;43.75;30.75;;;;;10.12;84.18;100059.16;5038612;28;45739;-54
2021/12/26 00:21:19;;;;;;;;;39.75;34.25;;;;;10.09;84.24;100055.00;5039424;28;45384;-51
2021/12/26 00:23:45;;;;;;;;;49.25;31.75;;;;;10.10;84.08;100059.31;5039229;28;45389;-53
2021/12/26 00:26:10;;;;;;;;;44.25;32.75;;;;;10.12;84.09;100053.84;5039255;28;45501;-53
2021/12/26 00:28:37;;;;;;;;;53.00;38.25;;;;;10.16;84.06;100055.19;5039153;28;46306;-50
2021/12/26 00:31:03;;;;;;;;;61.00;40.75;;;;;10.17;84.43;100052.38;5039162;28;45247;-51
2021/12/26 00:33:28;;;;;;;;;41.00;32.25;;;;;10.14;83.79;100047.38;5039411;28;45401;-52
2021/12/26 00:35:54;;;;;;;;;45.50;38.00;;;;;10.15;84.22;100046.38;5039280;28;45572;-53
2021/12/26 00:38:20;;;;;;;;;38.50;30.00;;;;;10.09;83.82;100035.56;5039035;28;46010;-51
2021/12/26 00:40:46;;;;;;;;;31.25;24.00;;;;;10.14;83.77;100041.22;5039155;28;45499;-52
2021/12/26 00:43:12;;;;;;;;;32.25;27.75;;;;;10.12;84.02;100041.41;5038988;28;45479;-52
2021/12/26 00:45:39;;;;;;;;;31.25;28.50;;;;;10.12;83.73;100041.41;5039287;28;45353;-52
2021/12/26 00:48:07;;;;;;;;;46.00;33.25;;;;;10.10;83.44;100027.41;5038680;28;46115;-52
2021/12/26 00:50:34;;;;;;;;;40.25;30.50;;;;;10.09;83.84;100031.06;5038814;28;45229;-53
2021/12/26 00:53:00;;;;;;;;;45.75;35.75;;;;;10.10;83.38;100031.91;5038769;28;45400;-52
2021/12/26 00:55:26;;;;;;;;;37.00;27.00;;;;;10.08;83.26;100025.94;5039027;28;45429;-51
2021/12/26 00:57:52;;;;;;;;;42.25;33.25;;;;;10.11;83.40;100039.75;5038448;28;47148;-51
2021/12/26 01:00:24;;;;;;;;;34.50;30.00;;;;;10.14;83.65;100041.22;5038781;28;45426;-50
2021/12/26 01:02:51;;;;;;;;;33.25;26.75;;;;;10.13;83.59;100043.06;5038747;28;45230;-52
2021/12/26 01:05:18;;;;;;;;;37.75;28.25;;;;;10.13;83.09;100045.72;5039029;28;45390;-53
2021/12/26 01:07:57;;;;;;;;;35.75;25.50;;;;;10.16;83.51;100039.25;5038530;28;46167;-52
2021/12/26 01:10:25;;;;;;;;;33.75;23.25;;;;;10.15;83.56;100041.06;5038456;28;45250;-50
2021/12/26 01:12:52;;;;;;;;;30.75;26.00;;;;;10.18;83.34;100045.22;5038328;28;45346;-52
2021/12/26 01:15:19;;;;;;;;;20.75;15.50;;;;;10.13;83.41;100040.41;5038718;28;45293;-50
2021/12/26 01:17:46;;;;;;;;;21.00;19.67;;;;;10.09;83.36;100048.84;5037936;28;46243;-52
2021/12/26 01:20:24;;;;;;;;;27.00;22.50;;;;;10.10;83.37;100035.38;5038353;28;45370;-51
2021/12/26 01:22:49;;;;;;;;;29.00;20.50;;;;;10.10;83.12;100038.06;5038648;28;45316;-52
2021/12/26 01:25:15;;;;;;;;;32.00;23.00;;;;;10.09;83.27;100047.03;5038715;28;45658;-51
2021/12/26 01:27:40;;;;;;;;;30.50;25.75;;;;;10.07;82.95;100037.53;5038018;28;46051;-51
2021/12/26 01:30:07;;;;;;;;;26.00;19.00;;;;;10.09;82.79;100043.53;5037457;28;45426;-53
2021/12/26 01:32:32;;;;;;;;;27.75;21.00;;;;;10.08;83.22;100045.38;5038355;28;45310;-53
2021/12/26 01:34:57;;;;;;;;;26.25;22.75;;;;;10.06;83.50;100042.03;5038596;28;45314;-52
2021/12/26 01:37:23;;;;;;;;;24.75;21.75;;;;;10.06;83.12;100033.22;5038309;28;46942;-52
2021/12/26 01:39:48;;;;;;;;;22.67;20.00;;;;;10.06;83.20;100031.41;5038177;28;45350;-52
2021/12/26 01:42:14;;;;;;;;;26.00;23.25;;;;;10.04;83.27;100036.06;5037715;28;45434;-51
2021/12/26 01:44:40;;;;;;;;;24.25;20.00;;;;;10.04;83.22;100036.06;5038491;28;45444;-51
2021/12/26 01:47:07;;;;;;;;;21.75;18.50;;;;;10.00;83.23;100032.88;5038138;28;45310;-51
2021/12/26 01:49:33;;;;;;;;;29.50;25.25;;;;;10.05;83.08;100036.88;5037960;28;45373;-54
2021/12/26 01:52:02;;;;;;;;;23.33;19.67;;;;;10.03;82.97;100031.72;5038096;28;45298;-50
2021/12/26 01:57:05;;;;;;;;;31.50;25.75;;;;;10.02;83.49;100031.88;5037658;28;45330;-53
2021/12/26 01:59:31;;;;;;;;;30.75;26.00;;;;;10.01;83.92;100028.38;5037659;28;45337;-52
2021/12/26 02:01:58;;;;;;;;;31.00;25.00;;;;;10.02;83.49;100027.38;5037831;28;45382;-52
2021/12/26 02:04:28;;;;;;;;;25.25;24.75;;;;;10.00;83.55;100030.22;5037960;28;45334;-53
2021/12/26 02:06:56;;;;;;;;;32.75;27.50;;;;;10.01;83.48;100033.72;5036979;28;45529;-52
2021/12/26 02:09:21;;;;;;;;;30.25;23.50;;;;;10.01;83.25;100023.06;5037772;28;45359;-51
2021/12/26 02:11:47;;;;;;;;;36.25;25.50;;;;;10.02;83.68;100030.03;5037451;28;45193;-51
2021/12/26 02:14:12;;;;;;;;;34.25;23.75;;;;;10.00;83.51;100040.03;5037694;28;45313;-50
2021/12/26 02:16:37;;;;;;;;;34.50;22.00;;;;;9.98;83.73;100039.34;5037356;28;45539;-52
2021/12/26 02:19:03;;;;;;;;;33.75;26.25;;;;;9.98;83.15;100044.66;5037761;28;45377;-53
2021/12/26 02:24:15;;;;;;;;;27.50;20.50;;;;;10.00;83.00;100045.34;5037796;28;45424;-50
2021/12/26 02:29:25;;;;;;;;;28.00;20.50;;;;;10.01;83.40;100031.03;5037143;28;45417;-52
2021/12/26 02:31:51;;;;;;;;;32.00;24.50;;;;;10.05;83.13;100037.72;5037465;28;45259;-51
2021/12/26 02:34:17;;;;;;;;;24.33;19.00;;;;;10.06;83.26;100038.53;5037614;28;45525;-52
2021/12/26 02:36:43;;;;;;;;;24.33;19.00;;;;;9.94;82.99;100022.91;5037161;28;45952;-51
2021/12/26 02:39:08;;;;;;;;;32.75;24.50;;;;;10.00;83.28;100034.72;5037357;28;45522;-50
2021/12/26 02:41:34;;;;;;;;;24.25;21.25;;;;;9.98;83.11;100032.19;5037058;28;45447;-53
2021/12/26 02:43:59;;;;;;;;;27.25;22.50;;;;;9.95;83.16;100032.53;5019461;28;45344;-52
2021/12/26 02:46:26;;;;;;;;;29.00;24.50;;;;;9.95;83.38;100029.03;5037048;28;45547;-49
2021/12/26 02:48:52;;;;;;;;;35.25;21.25;;;;;9.87;83.38;100015.72;5037290;28;45303;-51
2021/12/26 02:51:18;;;;;;;;;25.25;21.50;;;;;9.88;83.28;100023.53;5036969;28;45377;-52
2021/12/26 02:53:47;;;;;;;;;36.00;25.33;;;;;9.90;83.36;100018.03;5037521;28;45297;-53
2021/12/26 02:56:12;;;;;;;;;26.50;21.75;;;;;9.90;83.52;100024.22;5019215;28;46315;-50
2021/12/26 02:58:38;;;;;;;;;32.75;21.75;;;;;9.89;83.63;100019.88;5036999;28;45266;-52
2021/12/26 03:01:09;;;;;;;;;23.50;19.75;;;;;9.90;83.53;100012.72;5037518;28;45348;-53
2021/12/26 03:03:35;;;;;;;;;26.00;21.25;;;;;9.88;83.65;100012.91;5037896;28;45445;-48
2021/12/26 03:06:08;;;;;;;;;28.75;23.25;;;;;9.86;83.61;100016.69;5037435;28;45407;-54
2021/12/26 03:08:33;;;;;;;;;22.67;13.67;;;;;9.86;83.25;100022.88;5037123;28;45210;-53
2021/12/26 03:10:59;;;;;;;;;19.75;19.75;;;;;9.86;83.39;100022.00;5036893;28;45317;-54
2021/12/26 03:13:25;;;;;;;;;25.33;18.00;;;;;9.82;83.77;100008.25;5036945;28;45405;-50
2021/12/26 03:15:51;;;;;;;;;24.50;19.75;;;;;9.73;83.58;100002.06;5036142;28;45516;-52
2021/12/26 03:18:17;;;;;;;;;23.00;19.67;;;;;9.85;83.97;100017.69;5036494;28;45338;-52
2021/12/26 03:20:46;;;;;;;;;35.50;21.50;;;;;9.90;83.96;100023.34;5036734;28;45430;-53
2021/12/26 03:23:15;;;;;;;;;25.75;22.00;;;;;9.90;83.70;100026.88;5036870;28;45480;-52
2021/12/26 03:25:41;;;;;;;;;32.25;24.75;;;;;9.90;83.70;100018.03;5036636;28;45993;-52
2021/12/26 03:28:08;;;;;;;;;26.75;23.50;;;;;9.89;83.78;100021.69;5036314;28;45334;-52
2021/12/26 03:30:35;;;;;;;;;24.25;24.00;;;;;9.88;83.79;100015.56;5036791;28;45424;-50
2021/12/26 03:33:03;;;;;;;;;29.25;23.50;;;;;9.89;83.93;100029.66;5036642;28;45354;-52
2021/12/26 03:35:29;;;;;;;;;28.00;24.75;;;;;9.89;84.18;100024.34;5036340;28;46104;-49
2021/12/26 03:37:56;;;;;;;;;30.25;24.00;;;;;9.86;84.08;100020.22;5018412;28;45367;-49
2021/12/26 03:40:22;;;;;;;;;34.25;29.25;;;;;9.86;84.35;100017.56;5036552;28;45426;-51
2021/12/26 03:42:51;;;;;;;;;35.00;23.50;;;;;9.86;84.01;100019.34;5036688;28;45369;-49
2021/12/26 03:45:16;;;;;;;;;27.00;25.50;;;;;9.87;83.82;100021.03;5036368;28;46321;-50
2021/12/26 03:47:42;;;;;;;;;29.75;27.50;;;;;9.87;83.56;100015.72;5036482;28;45291;-52
2021/12/26 03:50:08;;;;;;;;;27.50;23.50;;;;;9.85;83.40;100015.88;5036639;28;45841;-51
2021/12/26 03:52:34;;;;;;;;;29.75;25.00;;;;;9.82;83.58;100007.38;5037698;28;45177;-50
2021/12/26 03:54:59;;;;;;;;;27.25;23.50;;;;;9.88;83.99;100014.72;5039779;28;45378;-51
2021/12/26 03:57:25;;;;;;;;;27.25;23.00;;;;;9.73;83.67;99991.44;5039709;28;45305;-49
2021/12/26 03:59:50;;;;;;;;;36.25;26.00;;;;;9.86;83.48;100009.59;5039949;28;45594;-51
2021/12/26 04:02:16;;;;;;;;;29.25;25.00;;;;;9.87;83.65;100013.06;5039794;28;45511;-51
2021/12/26 04:04:43;;;;;;;;;36.75;23.50;;;;;9.79;83.47;99995.28;5039562;28;45352;-50
2021/12/26 04:07:10;;;;;;;;;33.25;21.00;;;;;9.88;83.54;100012.06;5039462;28;45342;-52
2021/12/26 04:09:36;;;;;;;;;29.25;25.00;;;;;9.88;83.76;100009.41;5039647;28;45412;-51
2021/12/26 04:12:02;;;;;;;;;32.75;25.25;;;;;9.49;83.25;99949.66;5039799;28;45430;-50
2021/12/26 04:14:27;;;;;;;;;25.25;22.00;;;;;9.85;83.33;99999.09;5039168;28;46263;-51
2021/12/26 04:16:53;;;;;;;;;28.75;24.00;;;;;9.86;83.49;99995.44;5039196;28;45264;-50
2021/12/26 04:19:19;;;;;;;;;30.00;19.50;;;;;9.83;83.34;99993.13;5039487;28;45323;-50
2021/12/26 04:21:44;;;;;;;;;31.75;24.25;;;;;9.83;83.35;99995.78;5039682;28;45179;-52
2021/12/26 04:24:10;;;;;;;;;33.25;27.00;;;;;9.81;83.75;99990.63;5039197;28;46264;-51
2021/12/26 04:26:35;;;;;;;;;29.25;26.75;;;;;9.81;83.71;99993.28;5039308;28;45291;-51
2021/12/26 04:29:01;;;;;;;;;22.00;18.00;;;;;9.80;83.44;99990.78;5039268;28;45392;-53
2021/12/26 04:31:26;;;;;;;;;29.50;26.25;;;;;9.82;83.43;99987.00;5039579;28;45354;-53
2021/12/26 04:33:52;;;;;;;;;30.50;20.75;;;;;9.83;83.24;99990.47;5039217;28;46274;-51
2021/12/26 04:36:18;;;;;;;;;29.75;22.25;;;;;9.83;83.48;99985.16;5039246;28;45317;-51
2021/12/26 04:38:44;;;;;;;;;25.00;20.75;;;;;9.83;83.90;99990.47;5039371;28;45347;-52
2021/12/26 04:41:11;;;;;;;;;24.50;20.00;;;;;9.83;83.65;99990.47;5039232;28;45430;-51
2021/12/26 04:43:37;;;;;;;;;24.50;21.00;;;;;9.81;82.98;99992.44;5038904;28;46517;-50
2021/12/26 04:46:05;;;;;;;;;35.25;21.75;;;;;9.79;83.98;99986.47;5038904;28;45388;-52
2021/12/26 04:48:35;;;;;;;;;34.25;25.75;;;;;9.78;83.77;99990.13;5038982;28;45338;-50
2021/12/26 04:51:01;;;;;;;;;31.75;27.00;;;;;9.78;83.80;99987.47;5039170;28;45378;-50
2021/12/26 04:53:26;;;;;;;;;25.25;19.75;;;;;9.72;83.83;99973.81;5038806;28;46136;-56
2021/12/26 04:55:52;;;;;;;;;29.25;25.75;;;;;9.71;84.04;99969.50;5038988;28;45211;-51
2021/12/26 04:58:17;;;;;;;;;28.50;25.75;;;;;9.74;84.00;99976.34;5038885;28;45439;-52
2021/12/26 05:00:43;;;;;;;;;32.50;25.50;;;;;9.75;83.52;99978.00;5039029;28;45210;-53
2021/12/26 05:03:08;;;;;;;;;31.25;25.50;;;;;9.70;83.48;99970.50;5038431;28;46055;-50
2021/12/26 05:05:35;;;;;;;;;31.75;23.25;;;;;9.74;84.20;99977.16;5037705;28;45276;-51
2021/12/26 05:08:00;;;;;;;;;33.50;26.75;;;;;9.74;83.82;99982.47;5020761;28;45341;-50
2021/12/26 05:10:28;;;;;;;;;26.25;24.75;;;;;9.72;83.88;99967.69;5038980;28;45449;-52
2021/12/26 05:12:54;;;;;;;;;28.50;21.50;;;;;9.70;84.03;99967.84;5038614;28;46278;-52
2021/12/26 05:15:21;;;;;;;;;32.00;27.50;;;;;9.59;84.94;99959.31;5038330;28;45460;-52
2021/12/26 05:17:48;;;;;;;;;31.00;24.00;;;;;9.67;84.59;99976.13;5038451;28;45401;-53
2021/12/26 05:20:14;;;;;;;;;31.25;22.75;;;;;9.63;85.13;99969.47;5038680;28;45365;-56
2021/12/26 05:22:39;;;;;;;;;33.50;25.50;;;;;9.69;84.90;99970.63;5037057;28;48145;-52
2021/12/26 05:25:07;;;;;;;;;33.00;22.75;;;;;9.70;85.00;99970.50;5038365;28;45199;-51
2021/12/26 05:27:33;;;;;;;;;24.00;22.00;;;;;9.70;84.63;99967.84;5038491;28;45344;-50
2021/12/26 05:29:58;;;;;;;;;29.25;26.25;;;;;9.68;84.71;99967.16;5038645;28;45531;-50
2021/12/26 05:32:24;;;;;;;;;31.75;23.00;;;;;9.64;84.96;99965.81;5038112;28;46098;-51
2021/12/26 05:34:49;;;;;;;;;22.25;20.25;;;;;9.65;84.84;99967.50;5038268;28;45447;-51
2021/12/26 05:37:14;;;;;;;;;37.50;25.25;;;;;9.67;85.31;99964.69;5038236;28;45933;-50
2021/12/26 05:39:42;;;;;;;;;34.50;24.25;;;;;9.61;84.95;99949.41;5038305;28;45328;-52
2021/12/26 05:42:10;;;;;;;;;32.00;26.25;;;;;9.59;85.44;99944.22;5038120;28;46088;-51
2021/12/26 05:44:36;;;;;;;;;21.75;19.50;;;;;9.70;85.16;99957.22;5037925;28;45378;-54
2021/12/26 05:47:01;;;;;;;;;29.00;22.50;;;;;9.69;84.43;99950.25;5038052;28;45429;-52
2021/12/26 05:49:27;;;;;;;;;31.25;26.75;;;;;9.72;84.52;99957.88;5038386;28;45446;-50
2021/12/26 05:51:53;;;;;;;;;29.33;22.67;;;;;9.63;84.06;99934.94;5037909;28;46229;-52
2021/12/26 05:54:18;;;;;;;;;23.50;20.25;;;;;9.75;84.50;99954.91;5037912;28;45365;-52
2021/12/26 05:56:44;;;;;;;;;21.75;14.75;;;;;9.74;84.68;99955.91;5038111;28;45306;-51
2021/12/26 05:59:09;;;;;;;;;25.75;19.25;;;;;9.73;84.77;99967.53;5038132;28;45827;-49
2021/12/26 06:01:35;;;;;;;;;31.00;22.75;;;;;9.68;85.10;99966.34;5037671;28;45919;-53
2021/12/26 06:04:00;;;;;;;;;29.00;22.00;;;;;9.66;84.97;99961.19;5037708;28;45437;-51
2021/12/26 06:06:26;;;;;;;;;27.25;25.75;;;;;9.55;84.77;99947.34;5037815;28;45322;-53
2021/12/26 06:08:51;;;;;;;;;30.25;22.75;;;;;9.68;85.09;99959.19;5037836;28;45283;-52
2021/12/26 06:11:16;;;;;;;;;20.33;14.33;;;;;9.70;85.00;99961.72;5037753;28;46085;-52
2021/12/26 06:13:42;;;;;;;;;30.25;23.75;;;;;9.69;84.76;99968.00;5037654;28;45305;-51
2021/12/26 06:16:07;;;;;;;;;30.75;23.50;;;;;9.69;84.80;99965.34;5037242;28;45414;-51
2021/12/26 06:18:32;;;;;;;;;26.75;22.00;;;;;9.70;85.15;99959.88;5037643;28;45283;-50
2021/12/26 06:20:58;;;;;;;;;29.25;21.00;;;;;9.69;84.96;99952.06;5037214;28;46256;-52
2021/12/26 06:23:23;;;;;;;;;27.00;21.75;;;;;9.72;84.76;99963.19;5037589;28;45331;-53
2021/12/26 06:25:48;;;;;;;;;27.50;22.25;;;;;9.70;84.85;99964.38;5037567;28;45352;-52
2021/12/26 06:28:14;;;;;;;;;27.50;20.25;;;;;9.72;85.13;99962.38;5037746;28;45202;-53
2021/12/26 06:30:39;;;;;;;;;31.00;22.50;;;;;9.66;84.96;99952.41;5037310;28;45929;-52
2021/12/26 06:33:05;;;;;;;;;27.75;25.00;;;;;9.71;85.00;99956.22;5037333;28;45245;-53
2021/12/26 06:35:30;;;;;;;;;26.75;23.50;;;;;9.74;84.86;99955.09;5019583;28;46190;-50
2021/12/26 06:37:57;;;;;;;;;31.50;26.50;;;;;9.77;84.89;99953.91;5037479;28;45484;-49
2021/12/26 06:40:22;;;;;;;;;21.25;20.25;;;;;9.77;84.75;99951.25;5037411;28;45325;-52
2021/12/26 06:42:50;;;;;;;;;26.50;23.25;;;;;9.74;84.88;99937.31;5036984;28;45355;-52
2021/12/26 06:45:18;;;;;;;;;27.50;22.75;;;;;9.82;84.56;99959.56;5037193;28;45472;-48
2021/12/26 06:47:49;;;;;;;;;30.50;23.75;;;;;9.82;84.72;99951.59;5037236;28;45458;-49
2021/12/26 06:50:15;;;;;;;;;28.00;18.25;;;;;9.85;84.77;99948.63;5037107;28;45345;-49
2021/12/26 06:52:41;;;;;;;;;27.50;19.00;;;;;9.87;84.39;99952.81;5036925;28;45291;-51
2021/12/26 06:55:07;;;;;;;;;27.00;18.33;;;;;9.87;84.54;99951.97;5037108;28;45329;-52
2021/12/26 06:57:33;;;;;;;;;22.25;20.75;;;;;9.88;84.94;99949.13;5037325;28;45574;-53
2021/12/26 06:59:58;;;;;;;;;24.75;18.00;;;;;9.82;85.04;99941.84;5036357;28;46132;-52
2021/12/26 07:02:23;;;;;;;;;23.50;21.25;;;;;9.92;84.98;99949.66;5036908;28;45223;-52
2021/12/26 07:04:49;;;;;;;;;34.25;23.50;;;;;9.93;84.74;99954.78;5036910;28;45310;-53
2021/12/26 07:07:14;;;;;;;;;21.25;19.25;;;;;9.95;84.81;99955.47;5037194;28;45342;-53
2021/12/26 07:09:42;;;;;;;;;22.00;18.00;;;;;9.97;84.63;99950.00;5036784;28;46181;-52
2021/12/26 07:12:09;;;;;;;;;29.00;23.00;;;;;9.96;84.75;99941.19;5036778;28;45321;-51
2021/12/26 07:14:35;;;;;;;;;25.75;17.25;;;;;9.98;84.65;99947.16;5037108;28;45495;-53
2021/12/26 07:17:00;;;;;;;;;22.25;19.50;;;;;9.99;84.28;99950.69;5036642;28;45489;-54
2021/12/26 07:19:25;;;;;;;;;21.67;19.00;;;;;9.99;84.88;99961.31;5036693;28;46104;-53
2021/12/26 07:21:51;;;;;;;;;26.50;19.50;;;;;9.98;84.90;99951.66;5036666;28;45318;-53
2021/12/26 07:24:16;;;;;;;;;27.67;21.00;;;;;9.99;84.56;99948.84;5036867;28;45192;-53
2021/12/26 07:26:42;;;;;;;;;36.00;26.50;;;;;9.99;84.72;99953.34;5037157;28;45494;-52
2021/12/26 07:29:07;;;;;;;;;20.33;19.00;;;;;10.00;85.06;99960.31;5039914;28;45788;-53
2021/12/26 07:31:33;;;;;;;;;30.00;18.33;;;;;10.01;84.87;99961.97;5039952;28;45298;-50
2021/12/26 07:33:59;;;;;;;;;23.75;19.50;;;;;10.04;84.75;99961.66;5039042;28;45474;-53
2021/12/26 07:36:24;;;;;;;;;20.67;15.67;;;;;10.08;84.79;99968.31;5040480;28;45238;-53
2021/12/26 07:38:51;;;;;;;;;24.00;19.00;;;;;10.11;84.98;99967.13;5040080;28;46258;-52
2021/12/26 07:41:16;;;;;;;;;27.67;22.00;;;;;10.09;85.26;99969.13;5039915;28;45488;-55
2021/12/26 07:43:42;;;;;;;;;24.00;19.33;;;;;10.09;84.54;99967.31;5040201;28;45298;-52
2021/12/26 07:46:07;;;;;;;;;28.25;21.50;;;;;10.09;84.90;99955.84;5040064;28;45469;-51
2021/12/26 07:48:33;;;;;;;;;26.00;18.67;;;;;10.11;85.22;99961.81;5039890;28;45354;-51
2021/12/26 07:50:58;;;;;;;;;25.67;18.00;;;;;10.13;85.11;99959.84;5040081;28;45402;-51
2021/12/26 07:53:23;;;;;;;;;22.67;18.67;;;;;10.16;85.24;99954.22;5039966;28;45392;-51
2021/12/26 07:55:49;;;;;;;;;25.33;18.00;;;;;10.16;85.30;99964.84;5040142;28;45374;-52
2021/12/26 07:58:16;;;;;;;;;25.67;18.67;;;;;10.16;85.31;99963.00;5039719;28;46118;-51
2021/12/26 08:00:42;;;;;;;;;23.00;20.00;;;;;10.09;85.27;99953.19;5039722;28;45471;-51
2021/12/26 08:03:07;;;;;;;;;25.00;20.00;;;;;10.19;85.51;99969.81;5039837;28;45345;-53
2021/12/26 08:05:33;;;;;;;;;24.00;19.00;;;;;10.21;84.98;99968.66;5040145;28;45395;-53
2021/12/26 08:07:58;;;;;;;;;21.00;21.00;;;;;10.24;85.03;99984.31;5039803;28;45712;-53
2021/12/26 08:10:24;;;;;;;;;28.25;21.75;;;;;10.27;85.16;99982.31;5039673;28;45335;-54
2021/12/26 08:12:49;;;;;;;;;27.75;21.25;;;;;10.26;85.15;99978.81;5039839;28;45283;-49
2021/12/26 08:15:15;;;;;;;;;28.33;18.00;;;;;10.24;84.99;99972.84;5039922;28;45374;-53
2021/12/26 08:17:40;;;;;;;;;21.00;17.67;;;;;10.27;85.05;99977.81;5038900;28;46067;-48
2021/12/26 08:20:08;;;;;;;;;32.00;23.50;;;;;10.24;85.44;99973.69;5039770;28;45441;-51
2021/12/26 08:22:33;;;;;;;;;21.00;16.00;;;;;10.28;85.06;99982.16;5039601;28;45381;-53
2021/12/26 08:24:59;;;;;;;;;22.00;20.00;;;;;10.28;85.27;99978.66;5039612;28;45396;-52
2021/12/26 08:27:24;;;;;;;;;29.25;21.75;;;;;10.30;85.38;99982.00;5039233;28;45657;-51
2021/12/26 08:29:50;;;;;;;;;21.33;15.00;;;;;10.28;85.14;99979.50;5039413;28;46198;-49
2021/12/26 08:32:17;;;;;;;;;26.67;21.00;;;;;10.32;85.31;99986.13;5039528;28;45563;-50
2021/12/26 08:34:44;;;;;;;;;26.33;19.67;;;;;10.33;85.27;99987.00;5039583;28;45265;-52
2021/12/26 08:37:11;;;;;;;;;31.00;22.00;;;;;10.35;85.27;99985.81;5038990;28;47539;-49
2021/12/26 08:39:38;;;;;;;;;27.67;24.67;;;;;10.35;85.14;99988.47;5039067;28;45362;-52
2021/12/26 08:42:06;;;;;;;;;29.50;23.00;;;;;10.39;85.10;99991.66;5039007;28;45311;-57
2021/12/26 08:44:33;;;;;;;;;31.33;21.67;;;;;10.43;85.00;99992.97;5039215;28;45255;-52
2021/12/26 08:46:58;;;;;;;;;27.00;20.00;;;;;10.43;85.08;99996.47;5038798;28;46233;-51
2021/12/26 08:49:23;;;;;;;;;28.00;22.00;;;;;10.46;85.20;99997.97;5038902;28;45524;-53
2021/12/26 08:51:50;;;;;;;;;21.67;19.67;;;;;10.47;84.88;99997.81;5039125;28;45366;-50
2021/12/26 08:54:15;;;;;;;;;29.00;20.33;;;;;10.48;84.78;99996.81;5039312;28;45347;-51
2021/12/26 08:56:42;;;;;;;;;30.75;25.00;;;;;10.55;84.79;100012.13;5038825;28;46039;-53
2021/12/26 08:59:07;;;;;;;;;22.33;18.00;;;;;10.53;84.58;100000.78;5038822;28;45421;-54
2021/12/26 09:01:33;;;;;;;;;20.67;18.00;;;;;10.57;84.67;100000.31;5038724;28;45401;-50
2021/12/26 09:03:59;;;;;;;;;32.67;19.67;;;;;10.61;84.62;100006.13;5039107;28;45366;-50
2021/12/26 09:06:24;;;;;;;;;25.33;18.67;;;;;10.65;84.66;100005.63;5038676;28;46304;-51
2021/12/26 09:08:50;;;;;;;;;18.67;17.00;;;;;10.69;84.17;100014.94;5038559;28;45502;-48
2021/12/26 09:11:16;;;;;;;;;19.00;15.67;;;;;10.70;84.44;100016.63;5038733;28;45457;-53
2021/12/26 09:13:42;;;;;;;;;25.33;19.33;;;;;10.71;84.27;100004.16;5039027;28;45398;-52
2021/12/26 09:16:08;;;;;;;;;26.33;22.33;;;;;10.78;83.91;100017.59;5038612;28;47242;-51
2021/12/26 09:18:33;;;;;;;;;22.67;18.33;;;;;10.74;84.11;100009.97;5038199;28;45291;-53
2021/12/26 09:20:59;;;;;;;;;19.33;15.00;;;;;10.85;83.89;100018.63;5038600;28;45425;-53
2021/12/26 09:23:24;;;;;;;;;26.67;17.00;;;;;10.87;84.16;100022.78;5038838;28;45477;-53
2021/12/26 09:25:50;;;;;;;;;21.00;16.33;;;;;10.87;83.55;100016.59;5038324;28;46436;-54
2021/12/26 09:28:16;;;;;;;;;28.33;19.33;;;;;10.90;83.84;100019.78;5038499;28;45283;-52
2021/12/26 09:30:41;;;;;;;;;17.33;14.00;;;;;10.95;83.61;100029.91;5038563;28;45269;-52
2021/12/26 09:33:07;;;;;;;;;23.00;19.67;;;;;10.96;83.44;100029.78;5038360;28;45460;-52
2021/12/26 09:35:32;;;;;;;;;17.67;14.67;;;;;10.95;83.54;100027.25;5038339;28;46154;-53
2021/12/26 09:37:58;;;;;;;;;23.67;18.33;;;;;10.97;83.48;100025.28;5038247;28;45350;-50
2021/12/26 09:40:23;;;;;;;;;18.33;14.67;;;;;10.97;83.42;100026.09;5038345;28;45455;-51
2021/12/26 09:42:50;;;;;;;;;21.67;19.33;;;;;10.98;83.83;100030.41;5038277;28;45315;-52
2021/12/26 09:45:16;;;;;;;;;19.33;15.33;;;;;11.01;83.46;100028.44;5037917;28;46156;-49
2021/12/26 09:47:43;;;;;;;;;18.33;17.33;;;;;10.94;83.27;100017.63;5037559;28;45652;-50
2021/12/26 09:50:11;;;;;;;;;20.00;16.00;;;;;11.05;83.33;100029.78;5037351;28;45478;-57
2021/12/26 09:52:40;;;;;;;;;23.67;19.67;;;;;10.98;83.08;100018.94;5038325;28;45381;-51
2021/12/26 09:55:06;;;;;;;;;24.00;17.67;;;;;11.08;83.19;100030.28;5020266;28;45286;-52
2021/12/26 09:57:31;;;;;;;;;20.00;15.00;;;;;11.10;83.19;100025.59;5037631;28;45367;-53
2021/12/26 09:59:57;;;;;;;;;16.33;12.33;;;;;11.11;83.09;100029.91;5037995;28;45378;-52
2021/12/26 10:02:22;;;;;;;;;15.33;12.00;;;;;11.13;83.03;100033.25;5037960;28;45511;-51
2021/12/26 10:04:50;;;;;;;;;19.00;13.67;;;;;11.14;82.79;100034.91;5037883;28;46040;-50
2021/12/26 10:07:19;;;;;;;;;16.00;16.00;;;;;11.12;82.78;100026.25;5037843;28;45360;-52
2021/12/26 10:09:49;;;;;;;;;11.00;8.00;;;;;11.18;82.60;100036.25;5037881;28;45452;-53
2021/12/26 10:12:17;;;;;;;;;18.67;16.33;;;;;11.18;82.82;100033.56;5038075;28;45354;-53
2021/12/26 10:14:51;;;;;;;;;11.67;11.33;;;;;11.22;82.96;100039.41;5037661;28;45385;-52
2021/12/26 10:17:23;;;;;;;;;21.00;15.33;;;;;11.27;82.83;100029.06;5037245;28;45238;-53
2021/12/26 10:19:50;;;;;;;;;20.33;18.00;;;;;11.30;82.58;100026.06;5037559;28;45318;-53
2021/12/26 10:22:25;;;;;;;;;17.33;13.33;;;;;11.32;82.80;100015.25;5037695;28;45231;-53
2021/12/26 10:24:52;;;;;;;;;17.00;13.67;;;;;11.32;82.36;100015.25;5037158;28;45218;-52
2021/12/26 10:27:32;;;;;;;;;15.33;13.00;;;;;11.32;82.30;100009.94;5037294;28;45310;-51
2021/12/26 10:30:00;;;;;;;;;20.00;15.33;;;;;11.32;82.37;99999.28;5037495;28;45348;-52
2021/12/26 10:32:29;;;;;;;;;20.00;13.33;;;;;11.32;82.40;100008.09;5037538;28;45500;-53
2021/12/26 10:34:57;;;;;;;;;18.67;17.33;;;;;11.32;82.35;100000.09;5037265;28;46517;-54
2021/12/26 10:37:37;;;;;;;;;18.00;15.00;;;;;11.34;82.72;100007.94;5037315;28;45354;-53
2021/12/26 10:40:16;;;;;;;;;16.33;13.33;;;;;11.33;82.74;100009.75;5019536;28;45423;-53
2021/12/26 10:42:56;;;;;;;;;17.67;11.00;;;;;11.31;82.19;100006.44;5037633;28;45472;-51
2021/12/26 10:45:30;;;;;;;;;19.67;16.33;;;;;11.29;82.81;100002.25;5037043;28;46420;-52
2021/12/26 10:48:01;;;;;;;;;24.00;17.00;;;;;11.29;82.93;100003.09;5037010;28;45401;-52
2021/12/26 10:50:30;;;;;;;;;13.33;10.00;;;;;11.22;82.62;100002.13;5037613;28;45386;-50
2021/12/26 10:53:04;;;;;;;;;17.67;15.33;;;;;11.26;83.37;100002.63;5037458;28;45391;-53
2021/12/26 10:55:36;;;;;;;;;23.67;17.33;;;;;11.24;82.93;100000.13;5037070;28;46414;-53
2021/12/26 10:58:13;;;;;;;;;16.67;14.00;;;;;11.22;83.39;99991.47;5036946;28;45243;-53
2021/12/26 11:00:42;;;;;;;;;21.33;12.00;;;;;11.24;82.94;99995.63;5037212;28;45270;-50
2021/12/26 11:03:11;;;;;;;;;18.33;15.33;;;;;11.20;83.69;99991.63;5037039;28;45326;-52
2021/12/26 11:05:44;;;;;;;;;13.00;12.00;;;;;11.11;83.54;99984.66;5036796;28;47220;-50
2021/12/26 11:08:38;;;;;;;;;19.67;15.00;;;;;11.10;84.13;99985.66;5036856;28;45393;-50
2021/12/26 11:11:16;;;;;;;;;17.00;14.00;;;;;11.13;84.05;99985.34;5037110;28;45389;-53
2021/12/26 11:13:42;;;;;;;;;14.67;10.00;;;;;11.12;83.85;99981.00;5037299;28;45459;-50
2021/12/26 11:16:08;;;;;;;;;14.33;11.00;;;;;11.09;83.63;99983.19;5036614;28;45187;-51
2021/12/26 11:18:36;;;;;;;;;9.00;8.00;;;;;11.07;84.21;99982.50;5036540;28;45211;-49
2021/12/26 11:21:08;;;;;;;;;9.33;7.33;;;;;11.04;84.68;99983.69;5036980;28;45416;-52
2021/12/26 11:23:41;;;;;;;;;8.33;7.00;;;;;11.05;84.69;99979.19;5036997;28;45444;-50